CheckWX is a tool to help pilots better visualize weather data.  It is not intended as a substitute for an official pre-flight weather briefing.

10:24:58 UTC

ENFL TAF
Florø Airport
Florø, Norway
TAF ENFL 260800Z 2609/2618 11012KT 9999 -RA SCT010 BKN015 TEMPO 2609/2618 4000 RADZ BR BKN008 BECMG 2614/2616 18015KT BECMG 2616/2618 30005KT

Mar-26@
09:00 UTC

Mar-26 @ 09:00 UTC

Mar-26@
14:00 UTC

Mar-26 @ 14:00 UTC

TAF ENFL 260800Z 2609/2618 11012KT 9999 -RA SCT010 BKN015
Wind
  • 110° at 12 KTS
Conditions
Light Rain
Cloud Levels
  • Scattered at 1,000' AGL
  • Broken at 1,500' AGL

Mar-26@
09:00 UTC

Mar-26 @ 09:00 UTC

Mar-26@
18:00 UTC

Mar-26 @ 18:00 UTC

TEMPO 2609/2618 4000 RADZ BR BKN008

Temporary

Temporary Changes expected for less than half the time period

Conditions
Rain, Drizzle, Mist
Cloud Levels
  • Broken at 800' AGL

Mar-26@
14:00 UTC

Mar-26 @ 14:00 UTC

Mar-26@
16:00 UTC

Mar-26 @ 16:00 UTC

BECMG 2614/2616 18015KT

Becoming

Becoming Conditions expected by Tue, Mar 26, 2019 @ 16:00 UTC

Wind
  • 180° at 15 KTS
Conditions
Light Rain
Cloud Levels
  • Scattered at 1,000' AGL
  • Broken at 1,500' AGL

Mar-26@
16:00 UTC

Mar-26 @ 16:00 UTC

Mar-26@
18:00 UTC

Mar-26 @ 18:00 UTC

BECMG 2616/2618 30005KT

Becoming

Becoming Conditions expected by Tue, Mar 26, 2019 @ 18:00 UTC

Wind
  • 300° at 5 KTS
Conditions
Light Rain
Cloud Levels
  • Scattered at 1,000' AGL
  • Broken at 1,500' AGL